Astoria, South Dakota
Current Conditions -  °F | °C
As of 6:34 AM on Monday 24 Nov 2014 (Local Time) from KCNB Reporting Station
Overcast Overcast  
Wind Chill:   Ceiling: 2800
Heat Index: 17°   Visibility: 10mi
Dew Point: 12°   Wind: 17mph
Humidity: 80%   Direction: 320°NW
Pressure: 29.58"   Gusts: 30mph
Location:  44.56°N, 96.55°W
Report Text: KCNB 241234Z AUTO 32015G26KT 10SM SCT019 BKN028 OVC036 M08/M11 A2958 RMK AO2 T10811110
Loading
Personal Weather Stations






























Interactive Weather Map New forecast layout! Learn more

10-Day Weather Forecast

Advertisements
Track Severe Weather on mobile